Copas, Minnesota
Current Conditions -  °F | °C
As of 2:55 AM on Friday 31 Oct 2014 (Local Time) from KOEO Reporting Station
Clear Clear  
Wind Chill: 18°   Ceiling: Unl
Heat Index: 29°   Visibility: 10mi
Dew Point: 18°   Wind: 13mph
Humidity: 64%   Direction: 340°NNW
Pressure: 30.45"   Gusts: 17mph
Location:  45.2742°N, 92.8215°W
Report Text: KOEO 310755Z AUTO 34011G15KT 10SM CLR M02/M08 A3045 RMK AO2 T10181078
Loading
Personal Weather Stations






























Interactive Weather Map
Tropical Storm Tracking
New forecast layout! Learn more

10-Day Weather Forecast

Advertisements
Track Severe Weather on mobile